Loon Lake, Indiana
Current Conditions -  °F | °C
As of 2:54 PM on Thursday 18 Dec 2014 (Local Time) from KFWA Reporting Station
Overcast Overcast  
Wind Chill: 19°   Ceiling: 1500
Heat Index: 27°   Visibility: 7mi
Dew Point: 22°   Wind: 8mph
Humidity: 81%   Direction: 260°W
Pressure: 30.21"   Gusts: NA
Location:  41.1479°N, 85.4772°W
Report Text: KFWA 181954Z 26007KT 7SM OVC015 M03/M06 A3021 RMK AO2 SLP243 T10281056
Loading
Personal Weather Stations






























Interactive Weather Map New forecast layout! Learn more

10-Day Weather Forecast

Advertisements
Track Severe Weather on mobile